Sinton, Texas
Current Conditions -  °F | °C
As of 9:51 AM on Sunday 25 Jan 2015 (Local Time) from KCRP Reporting Station
Broken Clouds Broken Clouds  
Wind Chill: 55°   Ceiling: 25000
Heat Index: 55°   Visibility: 10mi
Dew Point: 45°   Wind: 7mph
Humidity: 69%   Direction: 260°W
Pressure: 30.12"   Gusts: NA
Location:  28.04°N, 97.51°W
Report Text: KCRP 251551Z 26006KT 10SM FEW150 BKN250 13/07 A3012 RMK AO2 SLP198 T01280072 $
Loading
Personal Weather Stations






























Interactive Weather Map New forecast layout! Learn more

10-Day Weather Forecast

Advertisements
Track Severe Weather on mobile